メインページ
METAR-TAF:

METAR-TAF

空港 :

ポートビラ・バウアフィールド空港

ポートビラ, エファテ島, バヌアツ

緯度: 17-42S, 経度: 168-18E, 海抜: 20m

現時点の気象観測

当レポートは1時間2分前の12:00(UTC)に作成
東/南東の風 3kt
気温 23°C
湿度 89%
気圧 1011 hPa
視程10km以上
高度2500ftの雲はほとんどない

METAR: NVVV 101200Z 11003KT 9999 FEW025 23/21 Q1011 RMK NIL

時間: 00:02 (13:02 UTC)

予報

当レポートは3時間2分前の10:00(UTC)に作成
予報は10日の 12時(UTC)から 11日の 12時(UTC)まで有効
東/南東の風 6kt
視程10km以上
高度2000ftの雲は散在している

TAF: NVVV 101000Z 1012/1112 11006KT 9999 SCT020

4,000以上の空港の気象観測と天気予報(METAR報とTAF報)

利用可能な観測所は地図上に黄色い丸と赤い丸で示す。

丸の上にカーソルを重ねると観測所名を参照できる。

次にクリックすると気象観測と天気予報を参照できる。

マップの切り替え:黒色「×」印の緑ボタンをクリックして拡大、「-」印の緑ボタンをクリックして縮小、緑色の三角印をクリックして隣りの地図に切り替え


METAR-TAF: